Red Springs, North Carolina
Current Conditions -  °F | °C
As of 6:52 AM on Sunday 23 Nov 2014 (Local Time) from KMEB Reporting Station
Overcast Overcast  
Wind Chill: 45°   Ceiling: 11000
Heat Index: 45°   Visibility: 7mi
Dew Point: 43°   Wind: 3mph
Humidity: 93%   Direction: 60°ENE
Pressure: 30.26"   Gusts: NA
Location:  34.82°N, 79.18°W
Report Text: KMEB 231152Z AUTO 06003KT 7SM OVC110 07/06 A3026 RMK AO2 RAB41E50 SLP245 P0001 60003 70003 T00720061 10072 20050 50000
Loading
Personal Weather Stations






























Interactive Weather Map New forecast layout! Learn more

10-Day Weather Forecast

Advertisements
Track Severe Weather on mobile